Time;durP1;ratioP1;P1;durP2;ratioP2;P2;SDS_P1;SDS_P2;PMS_P1;PMS_P2;Temp;Humidity;BMP_temperature;BMP_pressure;BME280_temperature;BME280_humidity;BME280_pressure;Samples;Min_cycle;Max_cycle;Signal;HPM_P1;HPM_P2
2023/09/07 00:02:13;;;;;;;5.45;2.92;;;;;;;13.60;100.00;97601.00;5014069;28;20320;-86
2023/09/07 00:04:49;;;;;;;4.65;2.97;;;;;;;13.59;100.00;97604.78;5005959;28;20060;-87
2023/09/07 00:07:25;;;;;;;4.77;2.77;;;;;;;13.57;100.00;97598.81;5023391;28;20648;-87
2023/09/07 00:09:57;;;;;;;10.95;3.25;;;;;;;13.59;100.00;97610.22;5005832;28;20049;-86
2023/09/07 00:12:27;;;;;;;5.30;3.10;;;;;;;13.55;100.00;97599.06;5003809;28;20074;-87
2023/09/07 00:15:01;;;;;;;5.20;3.25;;;;;;;13.51;100.00;97606.13;5003378;28;20197;-87
2023/09/07 00:17:29;;;;;;;4.85;3.00;;;;;;;13.46;100.00;97595.19;5005548;28;20042;-87
2023/09/07 00:19:58;;;;;;;4.50;2.70;;;;;;;13.32;100.00;97600.28;5003513;28;20042;-87
2023/09/07 00:22:25;;;;;;;7.43;3.60;;;;;;;13.34;100.00;97600.84;5002681;28;20064;-87
2023/09/07 00:24:57;;;;;;;4.82;3.15;;;;;;;13.36;100.00;97595.94;5002480;28;20046;-87
2023/09/07 00:27:27;;;;;;;4.97;2.85;;;;;;;13.37;100.00;97597.59;5003666;28;20476;-87
2023/09/07 00:29:54;;;;;;;6.82;3.22;;;;;;;13.39;100.00;97598.16;5006185;28;20037;-86
2023/09/07 00:32:21;;;;;;;4.45;2.80;;;;;;;13.38;100.00;97594.59;5001271;28;20125;-86
2023/09/07 00:34:52;;;;;;;6.78;2.50;;;;;;;13.39;100.00;97598.16;5010915;28;20532;-87
2023/09/07 00:37:19;;;;;;;5.88;3.00;;;;;;;13.37;100.00;97594.84;5005681;28;20050;-86
2023/09/07 00:39:48;;;;;;;5.03;2.70;;;;;;;13.37;100.00;97592.97;4997588;28;20062;-87
2023/09/07 00:42:16;;;;;;;4.72;2.90;;;;;;;13.41;100.00;97601.41;5003544;28;20050;-86
2023/09/07 00:44:47;;;;;;;5.03;2.97;;;;;;;13.34;100.00;97593.50;4998716;28;20061;-87
2023/09/07 00:47:15;;;;;;;4.57;2.70;;;;;;;13.41;100.00;97598.69;5000709;28;20532;-87
2023/09/07 00:49:43;;;;;;;4.05;2.63;;;;;;;13.39;100.00;97592.72;5003086;28;20133;-87
2023/09/07 00:52:10;;;;;;;4.35;2.83;;;;;;;13.29;100.00;97590.75;5004945;28;20137;-88
2023/09/07 00:54:38;;;;;;;6.30;3.05;;;;;;;13.21;100.00;97591.25;4984878;28;20042;-86
2023/09/07 00:57:09;;;;;;;5.07;3.03;;;;;;;13.14;100.00;97591.50;4993982;28;20042;-87
2023/09/07 00:59:42;;;;;;;7.47;2.88;;;;;;;13.11;100.00;97594.72;4995758;28;20065;-86
2023/09/07 01:02:11;;;;;;;5.38;3.22;;;;;;;13.00;100.00;97602.00;4998270;28;20049;-85
2023/09/07 01:04:42;;;;;;;4.90;3.13;;;;;;;12.99;100.00;97598.47;5000492;28;20042;-88
2023/09/07 01:07:25;;;;;;;6.35;3.20;;;;;;;13.08;100.00;97595.28;5004313;28;20145;-87
2023/09/07 01:09:56;;;;;;;5.35;3.03;;;;;;;13.09;100.00;97597.72;5008969;28;20137;-87
2023/09/07 01:12:22;;;;;;;6.45;3.35;;;;;;;13.04;100.00;97605.84;5001546;28;20069;-86
2023/09/07 01:14:49;;;;;;;5.82;3.25;;;;;;;12.92;100.00;97588.91;5005563;28;20252;-87
2023/09/07 01:17:16;;;;;;;6.30;3.42;;;;;;;12.81;100.00;97594.28;5004728;28;20072;-86
2023/09/07 01:19:45;;;;;;;6.15;3.20;;;;;;;12.68;100.00;97583.88;4990326;28;20505;-87
2023/09/07 01:22:14;;;;;;;8.32;3.20;;;;;;;12.61;100.00;97593.03;5009627;28;20056;-87
2023/09/07 01:24:42;;;;;;;6.88;3.22;;;;;;;12.61;100.00;97582.19;5009343;28;20050;-87
2023/09/07 01:27:09;;;;;;;6.72;3.45;;;;;;;12.61;100.00;97590.31;5010030;28;20044;-87
2023/09/07 01:29:41;;;;;;;6.93;2.90;;;;;;;12.59;100.00;97586.22;4998010;28;20617;-85
2023/09/07 01:32:09;;;;;;;6.45;3.53;;;;;;;12.50;100.00;97585.91;5001486;28;20052;-88
2023/09/07 01:34:37;;;;;;;6.00;3.30;;;;;;;12.49;100.00;97582.38;5005775;28;20260;-87
2023/09/07 01:37:07;;;;;;;4.72;2.70;;;;;;;12.51;100.00;97592.16;5008525;28;20070;-87
2023/09/07 01:39:34;;;;;;;5.22;3.20;;;;;;;12.54;100.00;97584.31;5011433;28;20427;-87
2023/09/07 01:42:01;;;;;;;6.30;3.20;;;;;;;12.50;100.00;97585.91;5004321;28;20049;-87
2023/09/07 01:44:31;;;;;;;6.47;2.92;;;;;;;12.52;100.00;97591.88;5003095;28;20729;-87
2023/09/07 01:47:04;;;;;;;5.03;3.00;;;;;;;12.56;100.00;97586.75;5002867;28;20053;-88
2023/09/07 01:52:31;;;;;;;4.95;2.70;;;;;;;12.47;100.00;97589.13;5006232;28;20329;-85
2023/09/07 01:55:04;;;;;;;6.85;3.10;;;;;;;12.48;100.00;97582.63;5001189;28;20105;-88
2023/09/07 01:57:39;;;;;;;7.15;3.80;;;;;;;12.45;100.00;97589.38;4994165;28;20034;-84
2023/09/07 02:00:11;;;;;;;5.20;3.20;;;;;;;12.38;100.00;97588.78;5003240;28;20057;-86
2023/09/07 02:02:38;;;;;;;5.05;3.05;;;;;;;12.36;100.00;97585.50;5002379;28;20041;-86
2023/09/07 02:05:05;;;;;;;4.97;3.45;;;;;;;12.30;100.00;97583.81;5008712;28;20044;-87
2023/09/07 02:07:33;;;;;;;6.65;3.72;;;;;;;12.28;100.00;97586.00;4990373;28;20015;-85
2023/09/07 02:10:04;;;;;;;6.00;3.58;;;;;;;12.29;100.00;97585.72;5025920;28;20117;-87
2023/09/07 02:12:41;;;;;;;6.63;3.23;;;;;;;12.26;100.00;97582.69;5002546;28;20121;-86
2023/09/07 02:15:24;;;;;;;6.00;3.30;;;;;;;12.30;100.00;97579.22;4998341;28;20619;-86
2023/09/07 02:17:59;;;;;;;6.03;3.15;;;;;;;12.34;100.00;97584.94;4977028;28;20427;-86
2023/09/07 02:20:26;;;;;;;6.03;3.38;;;;;;;12.27;100.00;97589.78;4975801;28;20324;-86
2023/09/07 02:23:04;;;;;;;6.18;3.33;;;;;;;12.27;100.00;97581.63;4963511;28;20263;-86
2023/09/07 02:25:36;;;;;;;5.80;3.53;;;;;;;12.28;100.00;97586.81;4992916;28;20053;-86
2023/09/07 02:28:03;;;;;;;6.57;4.40;;;;;;;12.25;100.00;97578.34;5006774;28;20038;-85
2023/09/07 02:30:30;;;;;;;5.65;3.75;;;;;;;12.21;100.00;97583.47;4999024;28;20050;-85
2023/09/07 02:32:58;;;;;;;6.40;3.47;;;;;;;12.12;100.00;97580.41;4981213;28;20606;-86
2023/09/07 02:35:26;;;;;;;8.52;3.40;;;;;;;12.01;100.00;97581.38;4984768;28;20046;-87
2023/09/07 02:37:56;;;;;;;8.40;4.45;;;;;;;11.96;100.00;97582.97;5003107;28;20041;-86
2023/09/07 02:40:31;;;;;;;7.35;3.28;;;;;;;11.99;100.00;97578.91;5004551;28;20076;-87
2023/09/07 02:43:05;;;;;;;6.68;3.85;;;;;;;11.97;100.00;97583.75;5002955;28;20501;-87
2023/09/07 02:45:33;;;;;;;6.80;4.00;;;;;;;12.00;100.00;97585.13;4997022;28;20041;-85
2023/09/07 02:48:14;;;;;;;8.53;3.53;;;;;;;12.03;100.00;97582.75;4999966;28;20491;-85
2023/09/07 02:50:48;;;;;;;6.90;3.85;;;;;;;11.97;100.00;97583.75;5001471;28;20424;-86
2023/09/07 02:53:44;;;;;;;6.05;3.67;;;;;;;11.87;100.00;97583.66;4994463;28;20525;-86
2023/09/07 02:56:44;;;;;;;8.43;3.78;;;;;;;11.97;100.00;97587.31;5003777;28;20045;-86
2023/09/07 02:59:23;;;;;;;5.03;3.47;;;;;;;11.94;100.00;97585.09;4999411;28;20556;-87
2023/09/07 03:01:54;;;;;;;6.07;3.63;;;;;;;11.95;100.00;97586.72;4996753;28;20337;-87
2023/09/07 03:04:34;;;;;;;5.93;3.50;;;;;;;11.91;100.00;97584.78;5018751;28;20046;-86
2023/09/07 03:07:13;;;;;;;7.60;3.92;;;;;;;11.96;100.00;97582.13;5005184;28;20100;-87
2023/09/07 03:12:42;;;;;;;5.82;3.60;;;;;;;11.95;100.00;97581.28;5007664;28;20042;-86
2023/09/07 03:15:09;;;;;;;7.57;3.85;;;;;;;11.99;100.00;97580.78;5004369;28;20046;-86
2023/09/07 03:17:48;;;;;;;7.13;4.22;;;;;;;12.00;100.00;97575.09;5001186;28;20041;-87
2023/09/07 03:20:18;;;;;;;6.05;3.33;;;;;;;12.06;100.00;97568.69;5006531;28;20056;-87
2023/09/07 03:22:49;;;;;;;5.60;3.78;;;;;;;12.08;100.00;97569.25;4991131;28;20112;-87
2023/09/07 03:25:34;;;;;;;5.85;3.60;;;;;;;12.13;100.00;97567.66;5006765;28;20061;-87
2023/09/07 03:28:16;;;;;;;7.32;3.78;;;;;;;11.96;100.00;97568.56;5002145;28;20058;-87
2023/09/07 03:30:55;;;;;;;7.32;3.72;;;;;;;11.95;100.00;97567.72;5012570;28;20057;-87
2023/09/07 03:33:27;;;;;;;5.68;3.80;;;;;;;11.95;100.00;97564.22;5002857;28;20045;-87
2023/09/07 03:35:59;;;;;;;7.47;3.80;;;;;;;11.93;100.00;97564.47;5005890;28;20052;-86
2023/09/07 03:38:26;;;;;;;5.70;3.55;;;;;;;11.95;100.00;97572.34;4986785;28;20039;-86
2023/09/07 03:40:53;;;;;;;6.07;4.00;;;;;;;11.87;100.00;97567.38;5004724;28;20050;-85
2023/09/07 03:43:20;;;;;;;7.10;3.45;;;;;;;11.75;100.00;97576.47;5024959;28;20052;-85
2023/09/07 03:45:47;;;;;;;5.93;3.95;;;;;;;11.58;100.00;97574.66;5000382;28;20085;-86
2023/09/07 03:48:16;;;;;;;5.80;3.67;;;;;;;11.60;100.00;97579.84;5014403;28;20554;-87
2023/09/07 03:50:43;;;;;;;6.50;3.85;;;;;;;11.68;100.00;97570.41;4998248;28;20121;-86
2023/09/07 03:53:10;;;;;;;7.55;4.93;;;;;;;11.73;100.00;97569.66;5001914;28;20045;-86
2023/09/07 03:55:44;;;;;;;6.57;4.13;;;;;;;11.67;100.00;97569.63;4998293;28;20433;-85
2023/09/07 03:58:14;;;;;;;5.93;3.65;;;;;;;11.63;100.00;97573.09;4995946;28;20041;-87
2023/09/07 04:00:42;;;;;;;6.50;4.10;;;;;;;11.68;100.00;97573.13;4999892;28;20088;-85
2023/09/07 04:03:09;;;;;;;7.15;4.18;;;;;;;11.73;100.00;97569.66;4997516;28;20130;-85
2023/09/07 04:05:37;;;;;;;6.72;4.00;;;;;;;11.63;100.00;97564.94;5002936;28;20092;-86
2023/09/07 04:08:05;;;;;;;6.38;3.97;;;;;;;11.64;100.00;97564.69;5005825;28;20030;-86
2023/09/07 04:10:32;;;;;;;6.78;4.20;;;;;;;11.58;100.00;97560.31;5002534;28;20076;-85
2023/09/07 04:13:00;;;;;;;8.15;3.97;;;;;;;11.48;100.00;97569.13;5007582;28;20068;-86
2023/09/07 04:15:31;;;;;;;6.65;4.40;;;;;;;11.52;100.00;97572.97;5021973;28;20061;-86
2023/09/07 04:17:58;;;;;;;6.57;4.00;;;;;;;11.54;100.00;97576.25;5001473;28;20042;-85
2023/09/07 04:20:26;;;;;;;8.15;4.07;;;;;;;11.63;100.00;97567.66;5005484;28;20042;-86
2023/09/07 04:22:52;;;;;;;7.60;3.83;;;;;;;11.64;100.00;97570.13;5012951;28;20057;-86
2023/09/07 04:25:20;;;;;;;5.95;3.78;;;;;;;11.60;100.00;97570.91;5011024;28;20136;-85
2023/09/07 04:27:46;;;;;;;5.63;3.80;;;;;;;11.64;100.00;97578.25;5008150;28;20061;-86
2023/09/07 04:30:13;;;;;;;6.43;4.18;;;;;;;11.60;100.00;97565.47;4984816;28;20042;-85
2023/09/07 04:32:40;;;;;;;7.40;4.18;;;;;;;11.63;100.00;97568.50;5006819;28;20046;-86
2023/09/07 04:35:07;;;;;;;6.13;4.07;;;;;;;11.72;100.00;97558.00;5000458;28;20413;-86
2023/09/07 04:37:34;;;;;;;7.40;4.43;;;;;;;11.76;100.00;97567.25;5001490;28;20034;-85
2023/09/07 04:40:02;;;;;;;6.45;4.43;;;;;;;11.77;100.00;97568.09;5003923;28;20042;-85
2023/09/07 04:42:29;;;;;;;6.55;4.40;;;;;;;11.76;100.00;97577.31;5008029;28;20195;-86
2023/09/07 04:44:56;;;;;;;6.85;4.15;;;;;;;11.75;100.00;97576.47;4989035;28;20080;-84
2023/09/07 04:47:22;;;;;;;8.27;4.25;;;;;;;11.74;100.00;97576.72;5007215;28;20078;-85
2023/09/07 04:49:50;;;;;;;7.03;4.13;;;;;;;11.78;100.00;97572.44;4999086;28;20042;-83
2023/09/07 04:52:19;;;;;;;6.72;4.25;;;;;;;11.67;100.00;97572.34;5024801;28;20030;-84
2023/09/07 04:54:46;;;;;;;12.55;4.57;;;;;;;11.78;100.00;97575.97;5039226;28;20062;-83
2023/09/07 04:57:17;;;;;;;6.15;3.75;;;;;;;11.74;100.00;97579.44;5018911;28;20053;-84
2023/09/07 04:59:44;;;;;;;7.37;5.10;;;;;;;11.67;100.00;97580.47;5022836;28;20176;-84
2023/09/07 05:02:12;;;;;;;7.18;4.35;;;;;;;11.67;100.00;97583.19;5017437;28;20058;-83
2023/09/07 05:04:41;;;;;;;7.95;4.20;;;;;;;11.64;100.00;97580.97;5020881;28;20046;-90
2023/09/07 05:07:09;;;;;;;9.95;4.50;;;;;;;11.71;100.00;97575.34;4997318;28;20430;-90
2023/09/07 05:09:36;;;;;;;6.32;4.13;;;;;;;11.74;100.00;97577.56;5000917;28;20069;-90
2023/09/07 05:12:03;;;;;;;6.03;4.07;;;;;;;11.65;100.00;97584.50;5004140;28;20082;-90
2023/09/07 05:14:29;;;;;;;6.47;4.72;;;;;;;11.62;100.00;97585.00;5023178;28;20045;-88
2023/09/07 05:16:57;;;;;;;6.43;4.35;;;;;;;11.58;100.00;97580.09;5002859;28;20140;-85
2023/09/07 05:19:24;;;;;;;7.55;4.85;;;;;;;11.53;100.00;97580.03;5007555;28;20041;-86
2023/09/07 05:21:51;;;;;;;7.03;4.15;;;;;;;11.56;100.00;97587.66;5003729;28;20050;-88
2023/09/07 05:24:17;;;;;;;7.47;4.80;;;;;;;11.55;100.00;97588.75;4998518;28;20058;-87
2023/09/07 05:26:44;;;;;;;7.80;4.63;;;;;;;11.56;100.00;97584.97;5004987;28;20077;-86
2023/09/07 05:29:12;;;;;;;6.20;4.30;;;;;;;11.57;100.00;97594.72;5003349;28;20047;-86
2023/09/07 05:31:39;;;;;;;10.75;4.72;;;;;;;11.62;100.00;97596.69;5016774;28;20528;-88
2023/09/07 05:34:06;;;;;;;8.63;4.93;;;;;;;11.68;100.00;97600.25;5017913;28;20050;-86
2023/09/07 05:36:33;;;;;;;6.82;4.72;;;;;;;11.74;100.00;97591.13;5007385;28;20516;-87
2023/09/07 05:39:02;;;;;;;6.28;4.25;;;;;;;11.78;100.00;97591.41;5008941;28;20042;-85
2023/09/07 05:41:28;;;;;;;8.25;4.40;;;;;;;11.82;100.00;97598.81;5022176;28;20054;-86
2023/09/07 05:43:55;;;;;;;11.27;4.57;;;;;;;11.90;100.00;97594.81;5012145;28;20046;-87
2023/09/07 05:46:22;;;;;;;8.03;4.80;;;;;;;11.97;100.00;97598.16;5004261;28;20046;-86
2023/09/07 05:48:49;;;;;;;7.35;5.00;;;;;;;12.02;100.00;97600.09;4998996;28;19976;-85
2023/09/07 05:51:16;;;;;;;9.07;5.28;;;;;;;12.08;100.00;97595.56;5003348;28;20057;-86
2023/09/07 05:53:42;;;;;;;7.35;4.60;;;;;;;12.11;100.00;97600.47;5002045;28;20563;-86
2023/09/07 05:56:09;;;;;;;10.45;5.25;;;;;;;12.16;100.00;97603.25;4990422;28;20044;-86
2023/09/07 05:58:35;;;;;;;8.40;4.80;;;;;;;12.23;100.00;97603.88;5005092;28;20054;-87
2023/09/07 06:01:02;;;;;;;6.82;4.72;;;;;;;12.25;100.00;97609.03;5001556;28;20042;-86
2023/09/07 06:03:29;;;;;;;7.10;4.90;;;;;;;12.31;100.00;97599.84;5007616;28;20061;-86
2023/09/07 06:05:57;;;;;;;8.43;5.07;;;;;;;12.40;100.00;97608.38;5003134;28;20033;-84
2023/09/07 06:08:23;;;;;;;6.90;4.78;;;;;;;12.52;100.00;97604.63;5003621;28;20042;-86
2023/09/07 06:10:50;;;;;;;9.20;5.10;;;;;;;12.56;100.00;97605.75;5004291;28;20407;-88
2023/09/07 06:13:17;;;;;;;7.70;5.05;;;;;;;12.72;100.00;97609.44;5001175;28;20420;-86
2023/09/07 06:15:43;;;;;;;11.50;5.28;;;;;;;12.86;100.00;97601.63;5001260;28;20049;-86
2023/09/07 06:18:10;;;;;;;6.60;4.82;;;;;;;13.03;100.00;97600.66;4991905;28;20038;-86
2023/09/07 06:20:37;;;;;;;9.25;6.00;;;;;;;13.19;100.00;97602.38;5007375;28;20048;-86
2023/09/07 06:23:04;;;;;;;8.40;5.00;;;;;;;13.35;100.00;97595.13;5019463;28;20038;-87
2023/09/07 06:25:31;;;;;;;7.10;4.50;;;;;;;13.50;100.00;97605.28;5008889;28;20042;-86
2023/09/07 06:28:00;;;;;;;9.60;5.50;;;;;;;13.64;100.00;97597.47;5007119;28;20963;-88
2023/09/07 06:30:26;;;;;;;5.90;4.40;;;;;;;13.79;100.00;97606.78;5023273;28;19944;-88
2023/09/07 06:32:53;;;;;;;10.38;5.20;;;;;;;13.95;100.00;97598.63;5022339;28;20039;-89
2023/09/07 06:35:20;;;;;;;6.85;5.03;;;;;;;14.10;100.00;97601.41;5018041;28;20045;-90
2023/09/07 06:37:47;;;;;;;7.50;4.80;;;;;;;14.25;100.00;97600.59;5017974;28;20283;-88
2023/09/07 06:40:17;;;;;;;6.13;4.80;;;;;;;14.38;100.00;97601.16;5018450;28;20060;-89
2023/09/07 06:42:48;;;;;;;6.55;4.55;;;;;;;14.57;100.00;97606.91;5023562;28;19925;-90
2023/09/07 06:45:18;;;;;;;6.35;4.25;;;;;;;14.65;100.00;97603.63;5018066;28;20544;-89
2023/09/07 06:47:45;;;;;;;6.13;4.20;;;;;;;14.81;100.00;97609.09;5015459;28;20475;-87
2023/09/07 06:50:11;;;;;;;9.07;4.70;;;;;;;14.98;100.00;97613.44;4996068;28;20046;-89
2023/09/07 06:52:38;;;;;;;5.95;4.05;;;;;;;15.10;100.00;97613.97;5019495;28;20056;-89
2023/09/07 06:55:06;;;;;;;6.75;4.85;;;;;;;15.27;100.00;97616.41;5014172;28;20042;-88
2023/09/07 06:57:33;;;;;;;8.13;5.00;;;;;;;15.42;100.00;97615.53;5028696;28;20042;-90
2023/09/07 07:00:05;;;;;;;7.93;4.53;;;;;;;15.55;100.00;97618.78;5030427;28;20157;-88
2023/09/07 07:02:31;;;;;;;8.25;4.50;;;;;;;15.73;100.00;97618.13;4996303;28;20066;-89
2023/09/07 07:04:58;;;;;;;6.97;4.60;;;;;;;16.08;100.00;97621.00;5019428;28;20042;-88
2023/09/07 07:07:25;;;;;;;9.32;5.20;;;;;;;16.27;100.00;97624.97;5031415;28;20053;-91
2023/09/07 07:09:52;;;;;;;8.10;4.90;;;;;;;16.45;100.00;97620.75;5009791;28;20150;-88
2023/09/07 07:12:20;;;;;;;8.05;5.15;;;;;;;16.63;100.00;97622.00;5019704;28;20485;-89
2023/09/07 07:14:47;;;;;;;8.27;4.30;;;;;;;16.81;99.20;97628.66;5003988;28;20043;-88
2023/09/07 07:17:14;;;;;;;8.25;4.25;;;;;;;16.95;98.57;97630.75;5009568;28;20093;-87
2023/09/07 07:19:42;;;;;;;15.32;11.15;;;;;;;17.05;97.93;97625.22;5001294;28;20064;-91
2023/09/07 07:22:10;;;;;;;8.02;4.93;;;;;;;17.14;97.41;97630.88;5001392;28;20053;-88
2023/09/07 07:24:36;;;;;;;6.53;4.60;;;;;;;17.28;96.38;97633.72;4982637;28;20069;-86
2023/09/07 07:27:03;;;;;;;6.22;4.80;;;;;;;17.41;96.33;97632.25;5001651;28;20151;-88
2023/09/07 07:29:39;;;;;;;8.02;5.70;;;;;;;17.54;93.56;97630.72;5080384;27;20393;-64
2023/09/07 07:32:06;;;;;;;7.20;4.78;;;;;;;17.59;93.87;97621.63;5082354;27;20059;-64
2023/09/07 07:34:32;;;;;;;8.35;5.22;;;;;;;17.67;92.88;97624.56;5023354;28;20128;-64
2023/09/07 07:37:00;;;;;;;7.13;4.40;;;;;;;17.76;92.70;97618.44;5034595;28;20076;-64
2023/09/07 07:39:26;;;;;;;8.27;5.18;;;;;;;17.80;92.39;97623.03;5036025;28;20045;-64
2023/09/07 07:41:53;;;;;;;7.15;4.82;;;;;;;17.92;92.00;97622.59;5037966;28;20048;-64
2023/09/07 07:44:20;;;;;;;7.32;5.07;;;;;;;17.92;91.58;97622.59;5042785;28;20047;-65
2023/09/07 07:46:47;;;;;;;7.72;4.70;;;;;;;17.98;90.85;97620.59;5036978;28;20131;-65
2023/09/07 07:49:15;;;;;;;7.60;5.50;;;;;;;18.06;91.40;97621.88;5035548;28;20714;-66
2023/09/07 07:51:42;;;;;;;7.38;4.38;;;;;;;18.16;90.65;97612.72;5036884;28;20397;-66
2023/09/07 07:54:09;;;;;;;7.88;5.60;;;;;;;18.23;91.07;97618.66;5038163;28;20631;-66
2023/09/07 07:56:36;;;;;;;8.30;5.53;;;;;;;18.34;89.65;97616.56;5040464;28;20069;-64
2023/09/07 07:59:04;;;;;;;6.30;4.97;;;;;;;18.37;89.42;97612.41;5039886;28;20053;-60
2023/09/07 08:01:31;;;;;;;7.47;5.28;;;;;;;18.44;90.31;97615.59;5035623;28;20516;-61
2023/09/07 08:03:59;;;;;;;7.43;5.20;;;;;;;18.49;90.08;97612.78;5034079;28;20049;-61
2023/09/07 08:06:30;;;;;;;9.98;5.18;;;;;;;18.57;90.00;97614.84;5071476;28;20049;-66
2023/09/07 08:08:57;;;;;;;6.10;4.55;;;;;;;18.66;89.19;97619.66;5043296;28;20056;-65
2023/09/07 08:11:25;;;;;;;7.72;4.65;;;;;;;18.75;89.53;97615.09;5033778;28;20048;-65
2023/09/07 08:13:52;;;;;;;8.30;5.13;;;;;;;18.84;87.48;97607.00;5036234;28;20099;-66
2023/09/07 08:16:19;;;;;;;8.10;5.68;;;;;;;18.92;87.26;97616.47;5034686;28;20037;-64
2023/09/07 08:18:46;;;;;;;9.95;5.20;;;;;;;19.01;86.80;97617.41;5037482;28;20045;-58
2023/09/07 08:21:14;;;;;;;8.88;4.90;;;;;;;19.11;87.30;97613.69;5041175;28;20056;-64
2023/09/07 08:23:41;;;;;;;12.68;5.95;;;;;;;19.17;85.70;97615.22;5033626;28;20037;-66
2023/09/07 08:26:09;;;;;;;8.88;4.95;;;;;;;19.19;85.20;97617.66;5031995;28;20132;-66
2023/09/07 08:28:37;;;;;;;9.80;4.82;;;;;;;19.26;85.64;97615.34;5036086;28;20140;-61
2023/09/07 08:31:04;;;;;;;7.00;4.88;;;;;;;19.30;86.13;97621.03;5036454;28;20045;-66
2023/09/07 08:33:32;;;;;;;8.70;5.28;;;;;;;19.34;84.54;97614.66;5038091;28;20053;-60
2023/09/07 08:36:01;;;;;;;8.45;5.05;;;;;;;19.44;84.72;97615.56;5038220;28;20041;-62
2023/09/07 08:38:27;;;;;;;7.93;4.82;;;;;;;19.55;84.73;97616.16;5036307;28;20800;-60
2023/09/07 08:40:59;;;;;;;7.35;4.15;;;;;;;19.60;83.95;97614.13;5022613;28;20049;-62
2023/09/07 08:43:29;;;;;;;6.45;4.28;;;;;;;19.62;83.18;97622.06;5024792;28;20124;-61
2023/09/07 08:46:04;;;;;;;6.72;4.60;;;;;;;19.76;83.79;97622.88;5023903;28;20126;-60
2023/09/07 08:48:31;;;;;;;8.52;4.38;;;;;;;19.86;83.89;97623.78;5021816;28;20128;-64
2023/09/07 08:50:59;;;;;;;7.35;4.90;;;;;;;19.93;82.94;97623.38;5025073;28;20037;-65
2023/09/07 08:53:26;;;;;;;6.82;4.00;;;;;;;19.98;82.25;97618.59;5025042;28;20049;-66
2023/09/07 08:55:53;;;;;;;7.93;4.45;;;;;;;20.14;82.40;97613.59;5028441;28;20049;-65
2023/09/07 08:58:19;;;;;;;7.78;4.22;;;;;;;20.23;83.09;97613.66;5025503;28;20029;-66
2023/09/07 09:00:47;;;;;;;8.23;5.40;;;;;;;20.25;80.76;97613.34;5025110;28;20037;-66
2023/09/07 09:03:13;;;;;;;6.32;4.40;;;;;;;20.29;80.57;97619.84;5023816;28;20052;-66
2023/09/07 09:05:41;;;;;;;5.95;4.72;;;;;;;20.33;80.92;97620.88;5027548;28;20810;-65
2023/09/07 09:08:08;;;;;;;7.35;4.78;;;;;;;20.47;82.11;97615.31;5024465;28;20055;-60
2023/09/07 09:10:39;;;;;;;8.52;4.32;;;;;;;20.56;81.32;97626.38;5028981;28;20041;-68
2023/09/07 09:13:06;;;;;;;6.80;5.00;;;;;;;20.69;82.13;97624.72;5023841;28;20041;-67
2023/09/07 09:15:32;;;;;;;8.43;4.75;;;;;;;20.66;80.59;97619.81;5022115;28;20642;-62
2023/09/07 09:18:08;;;;;;;10.07;5.40;;;;;;;20.71;80.57;97618.91;5019582;28;20037;-67
2023/09/07 09:20:37;;;;;;;13.15;6.13;;;;;;;20.75;81.18;97617.16;5021376;28;20334;-63
2023/09/07 09:23:04;;;;;;;10.43;5.00;;;;;;;20.84;79.46;97615.25;5026142;28;20525;-62
2023/09/07 09:25:31;;;;;;;8.75;4.82;;;;;;;20.92;79.96;97619.22;5024644;28;20072;-62
2023/09/07 09:27:57;;;;;;;8.70;5.05;;;;;;;20.94;79.26;97616.97;5021786;28;20042;-62
2023/09/07 09:30:25;;;;;;;10.32;5.40;;;;;;;20.96;79.42;97619.41;5025053;28;20080;-63
2023/09/07 09:32:51;;;;;;;6.22;4.63;;;;;;;20.92;78.67;97606.28;5023229;28;20061;-62
2023/09/07 09:35:19;;;;;;;7.72;5.05;;;;;;;20.90;78.67;97608.50;5022419;28;20042;-63
2023/09/07 09:37:48;;;;;;;7.75;4.88;;;;;;;21.04;79.69;97600.19;5024808;28;20056;-63
2023/09/07 09:40:16;;;;;;;7.18;4.82;;;;;;;21.14;78.37;97603.78;5020039;28;20049;-62
2023/09/07 09:42:44;;;;;;;10.50;5.10;;;;;;;21.18;78.66;97605.59;5027548;28;20048;-62
2023/09/07 09:45:12;;;;;;;7.93;5.43;;;;;;;21.28;77.53;97609.22;5022386;28;20560;-62
2023/09/07 09:47:40;;;;;;;9.60;5.65;;;;;;;21.20;77.43;97607.22;5024132;28;20050;-63
2023/09/07 09:50:09;;;;;;;9.75;5.78;;;;;;;21.22;77.27;97600.25;5021690;28;20095;-62
2023/09/07 09:52:37;;;;;;;16.05;5.57;;;;;;;21.40;77.20;97598.41;5020220;28;20307;-62
2023/09/07 09:55:07;;;;;;;9.32;5.32;;;;;;;21.48;76.18;97598.75;5021514;28;20733;-63
2023/09/07 09:57:35;;;;;;;8.45;5.07;;;;;;;21.53;76.86;97596.66;5022527;28;20599;-63
2023/09/07 10:00:19;;;;;;;8.50;4.93;;;;;;;21.63;76.05;97601.06;5022563;28;20117;-62
2023/09/07 10:02:50;;;;;;;8.38;4.75;;;;;;;21.81;76.42;97604.72;5021509;28;20046;-62
2023/09/07 10:05:18;;;;;;;7.87;5.20;;;;;;;21.80;74.16;97600.34;5021526;28;20128;-62
2023/09/07 10:07:48;;;;;;;7.55;5.05;;;;;;;21.84;74.14;97595.00;5022423;28;20122;-62
2023/09/07 10:10:17;;;;;;;7.75;5.10;;;;;;;21.91;73.68;97605.53;5022309;28;20038;-62
2023/09/07 10:12:50;;;;;;;12.50;5.57;;;;;;;21.91;73.75;97600.03;5021306;28;20045;-62
2023/09/07 10:15:24;;;;;;;9.27;5.20;;;;;;;22.07;74.40;97603.94;5021830;28;20041;-62
2023/09/07 10:18:02;;;;;;;7.05;4.70;;;;;;;22.11;73.47;97600.56;5024808;28;20049;-62
2023/09/07 10:20:46;;;;;;;9.95;5.43;;;;;;;22.12;72.54;97599.41;5025945;28;20047;-63
2023/09/07 10:23:12;;;;;;;10.23;4.90;;;;;;;22.17;72.76;97607.53;5025825;28;20049;-63
2023/09/07 10:25:39;;;;;;;14.68;6.57;;;;;;;22.25;72.38;97600.41;5024939;28;20566;-63
2023/09/07 10:28:17;;;;;;;6.50;4.97;;;;;;;22.24;71.67;97599.59;5022934;28;20753;-63
2023/09/07 10:30:45;;;;;;;10.18;4.75;;;;;;;22.34;72.49;97593.72;5018161;28;20135;-62
2023/09/07 10:33:21;;;;;;;9.93;4.90;;;;;;;22.36;71.55;97590.66;5021061;28;20037;-63
2023/09/07 10:35:48;;;;;;;6.75;4.97;;;;;;;22.37;71.60;97583.22;5024642;28;20119;-63
2023/09/07 10:38:15;;;;;;;7.55;4.80;;;;;;;22.57;70.73;97582.56;5023696;28;20079;-63
2023/09/07 10:40:44;;;;;;;9.73;6.03;;;;;;;22.59;70.29;97582.25;5030773;28;20089;-63
2023/09/07 10:43:11;;;;;;;6.85;5.07;;;;;;;22.67;70.69;97575.88;5022126;28;20566;-63
2023/09/07 10:45:37;;;;;;;8.25;4.78;;;;;;;22.80;70.54;97576.03;5024874;28;20043;-63
2023/09/07 10:48:04;;;;;;;6.68;4.35;;;;;;;22.89;69.60;97573.25;5029653;28;20790;-65
2023/09/07 10:50:31;;;;;;;6.65;4.70;;;;;;;22.93;69.03;97586.09;5022341;28;20512;-62
2023/09/07 10:52:57;;;;;;;8.35;5.03;;;;;;;22.99;68.81;97573.72;5019730;28;20132;-65
2023/09/07 10:55:25;;;;;;;8.10;5.07;;;;;;;22.95;68.58;97570.00;5020631;28;20052;-64
2023/09/07 10:57:51;;;;;;;6.78;4.68;;;;;;;22.93;68.59;97566.75;5023095;28;20049;-65
2023/09/07 11:00:18;;;;;;;6.88;5.20;;;;;;;23.05;68.86;97566.06;5023904;28;20041;-65
2023/09/07 11:02:44;;;;;;;7.40;5.07;;;;;;;23.06;67.92;97562.16;5022301;28;20549;-65
2023/09/07 11:05:12;;;;;;;7.03;5.40;;;;;;;23.28;67.90;97559.50;5023683;28;20092;-65
2023/09/07 11:07:40;;;;;;;7.93;4.93;;;;;;;23.37;67.42;97560.28;5024602;28;20131;-65
2023/09/07 11:10:08;;;;;;;6.40;4.70;;;;;;;23.31;67.10;97567.09;5022631;28;20033;-65
2023/09/07 11:12:40;;;;;;;8.18;5.32;;;;;;;23.28;67.15;97553.97;5019913;28;20045;-65
2023/09/07 11:15:10;;;;;;;7.25;4.95;;;;;;;23.31;67.23;97559.63;5020973;28;20041;-65
2023/09/07 11:17:39;;;;;;;7.37;5.20;;;;;;;23.26;67.53;97552.31;5022634;28;20065;-65
2023/09/07 11:20:07;;;;;;;8.52;5.45;;;;;;;23.33;67.34;97557.34;5009613;28;20049;-64
2023/09/07 11:22:35;;;;;;;7.13;4.25;;;;;;;23.64;67.16;97555.41;5002677;28;20326;-63
2023/09/07 11:25:01;;;;;;;6.22;4.63;;;;;;;23.69;66.16;97559.97;5011442;28;20041;-61
2023/09/07 11:27:32;;;;;;;6.07;4.43;;;;;;;23.70;66.29;97556.84;5022994;28;20423;-62
2023/09/07 11:30:00;;;;;;;7.90;4.85;;;;;;;23.88;65.75;97554.78;5021421;28;20069;-62
2023/09/07 11:32:34;;;;;;;6.60;4.38;;;;;;;24.12;65.36;97563.59;5018606;28;20099;-65
2023/09/07 11:35:01;;;;;;;6.60;4.78;;;;;;;24.17;64.87;97555.06;5023495;28;20177;-62
2023/09/07 11:37:27;;;;;;;6.32;4.43;;;;;;;24.26;63.66;97555.03;5019281;28;20057;-65
2023/09/07 11:39:54;;;;;;;7.93;4.80;;;;;;;24.26;63.92;97553.06;5020145;28;20041;-65
2023/09/07 11:42:22;;;;;;;7.25;5.03;;;;;;;24.27;63.51;97557.44;5020894;28;20061;-65